»·PEaware :: N1453S KSNA-KBUR

N1453S :: KSNA-KBUR

FLIGHT INFORMATION

Flight Status: Arrived
Operator: Privately registered:
United States
More flights under this callsign
Pilot: Langdon M. (23058)
Aircraft: CESSNA 182 SKYLANE
(C182)
More flights by this aircraft type
Origin: KSNA John Wayne-Orange Co
United States
Destination: KBUR Bob Hope-Burbank
United States
More flights between these airports :: More routes between these airports
Route: +CSTP1
File this flight plan on PilotEdge
Remarks:
Altitude:
(Current/Filed)
4,000ft
Speed:
(Current/Filed)
140kts
Departed: 08-Nov-19 11:37 AM
Arrived: 08-Nov-19 12:33 PM
Distance/Time
Traveled:
40nm/0:56
Distance/Time
To Go:
Arrived

Flight Plot

Page will automatically refresh every two minutes.

Flight plan parsing failed; only flown route is shown


Map Options




Map Legend


Flown Route
Filed Route
Departure Airport
Arrival Airport
Navaid (VOR, NDB)
Fix

Horizontal Profiles

Position Reports

Time Latitude Longitude Heading Altitude Ground
Speed
08-Nov-19 11:12 33.668887 -117.875304 27 62ft 0kts
08-Nov-19 11:13 33.668887 -117.875304 27 62ft 0kts
08-Nov-19 11:14 33.668887 -117.875304 27 62ft 0kts
08-Nov-19 11:15 33.668887 -117.875304 27 62ft 0kts
08-Nov-19 11:16 33.668887 -117.875304 27 62ft 0kts
08-Nov-19 11:17 33.668887 -117.875304 27 62ft 0kts
08-Nov-19 11:18 33.668887 -117.875304 27 62ft 0kts
08-Nov-19 11:19 33.668887 -117.875304 27 62ft 0kts
08-Nov-19 11:20 33.668887 -117.875304 27 62ft 0kts
08-Nov-19 11:21 33.668887 -117.875304 27 62ft 0kts
08-Nov-19 11:22 33.668887 -117.875304 27 62ft 0kts
08-Nov-19 11:23 33.668887 -117.875304 27 62ft 0kts
08-Nov-19 11:24 33.668887 -117.875304 27 62ft 0kts
08-Nov-19 11:25 33.668887 -117.875304 27 62ft 0kts
08-Nov-19 11:26 33.668887 -117.875304 27 62ft 0kts
08-Nov-19 11:27 33.669302 -117.874595 58 62ft 21kts
08-Nov-19 11:28 33.675733 -117.870295 27 62ft 23kts
08-Nov-19 11:29 33.681065 -117.867104 35 62ft 14kts
08-Nov-19 11:30 33.681207 -117.866449 117 62ft 0kts
08-Nov-19 11:31 33.681207 -117.866450 117 62ft 0kts
08-Nov-19 11:32 33.681207 -117.866450 117 62ft 0kts
08-Nov-19 11:33 33.681207 -117.866450 117 62ft 0kts
08-Nov-19 11:34 33.681207 -117.866450 117 62ft 0kts
08-Nov-19 11:35 33.680475 -117.865800 205 62ft 4kts
08-Nov-19 11:36 33.667163 -117.875150 225 550ft 79kts
08-Nov-19 11:37 33.660041 -117.900961 259 1565ft 76kts
08-Nov-19 11:38 33.652433 -117.927635 263 2481ft 87kts
08-Nov-19 11:39 33.669199 -117.948220 321 3388ft 89kts
08-Nov-19 11:40 33.689544 -117.968032 324 4081ft 95kts
08-Nov-19 11:41 33.711121 -117.986530 322 4807ft 98kts
08-Nov-19 11:42 33.735189 -118.010356 322 4427ft 119kts
08-Nov-19 11:43 33.762402 -118.033701 328 3985ft 121kts
08-Nov-19 11:44 33.787073 -118.065430 287 3969ft 138kts
08-Nov-19 11:45 33.797270 -118.111085 287 4004ft 142kts
08-Nov-19 11:46 33.807638 -118.157325 291 4025ft 143kts
08-Nov-19 11:47 33.820728 -118.202574 285 4052ft 143kts
08-Nov-19 11:48 33.831475 -118.248908 290 4091ft 144kts
08-Nov-19 11:49 33.849375 -118.292123 318 4027ft 145kts
08-Nov-19 11:50 33.879162 -118.324645 321 4013ft 145kts
08-Nov-19 11:51 33.907139 -118.359187 316 3995ft 146kts
08-Nov-19 11:52 33.940104 -118.385521 320 4040ft 141kts
08-Nov-19 11:53 33.969264 -118.416910 318 4073ft 139kts
08-Nov-19 11:54 33.999228 -118.446841 327 4071ft 138kts
08-Nov-19 11:55 34.033665 -118.472326 326 3957ft 150kts
08-Nov-19 11:56 34.067856 -118.500459 323 3979ft 149kts
08-Nov-19 11:57 34.101030 -118.529169 323 4011ft 148kts
08-Nov-19 11:58 34.135542 -118.555815 326 4039ft 147kts
08-Nov-19 11:59 34.168705 -118.581787 329 4028ft 145kts
08-Nov-19 12:00 34.201242 -118.610456 318 4030ft 139kts
08-Nov-19 12:01 34.208723 -118.650046 273 3998ft 116kts
08-Nov-19 12:02 34.207942 -118.687368 257 3984ft 111kts
08-Nov-19 12:03 34.183966 -118.690719 109 3964ft 111kts
08-Nov-19 12:04 34.196408 -118.662802 44 3971ft 101kts
08-Nov-19 12:05 34.200713 -118.630479 90 4004ft 101kts
08-Nov-19 12:06 34.200314 -118.598099 80 3976ft 96kts
08-Nov-19 12:07 34.200339 -118.564542 92 3331ft 102kts
08-Nov-19 12:08 34.199480 -118.530905 89 2789ft 96kts
08-Nov-19 12:09 34.198296 -118.501317 91 2917ft 87kts
08-Nov-19 12:10 34.199269 -118.469334 88 2418ft 100kts
08-Nov-19 12:11 34.198445 -118.436126 90 1907ft 97kts
08-Nov-19 12:12 34.197899 -118.403557 91 1668ft 94kts
08-Nov-19 12:13 34.187074 -118.376806 142 2592ft 89kts
08-Nov-19 12:14 34.163077 -118.361337 157 3298ft 101kts
08-Nov-19 12:15 34.143948 -118.380370 233 4030ft 101kts
08-Nov-19 12:16 34.122517 -118.404588 226 4523ft 121kts
08-Nov-19 12:17 34.095910 -118.435950 222 4615ft 143kts
08-Nov-19 12:18 34.083707 -118.477439 284 4728ft 136kts
08-Nov-19 12:19 34.092131 -118.524255 283 4544ft 157kts
08-Nov-19 12:20 34.100815 -118.573576 283 4598ft 148kts
08-Nov-19 12:21 34.109006 -118.622647 283 4546ft 150kts
08-Nov-19 12:22 34.121958 -118.667672 337 4559ft 142kts
08-Nov-19 12:23 34.155564 -118.648299 33 4606ft 140kts
08-Nov-19 12:24 34.185270 -118.617264 62 4293ft 155kts
08-Nov-19 12:25 34.198950 -118.577474 84 3579ft 111kts
08-Nov-19 12:26 34.199136 -118.543136 78 2950ft 99kts
08-Nov-19 12:27 34.199152 -118.511173 89 3021ft 94kts
08-Nov-19 12:29 34.199112 -118.479598 84 2603ft 94kts
08-Nov-19 12:30 34.198686 -118.447412 86 2068ft 96kts
08-Nov-19 12:31 34.198282 -118.414975 88 1555ft 95kts
08-Nov-19 12:32 34.198149 -118.384640 88 1111ft 83kts
08-Nov-19 12:33 34.197834 -118.361310 90 782ft 20kts
08-Nov-19 12:34 34.198575 -118.360245 0 782ft 0kts
08-Nov-19 12:35 34.199598 -118.360018 73 782ft 4kts
08-Nov-19 12:36 34.199660 -118.359661 79 782ft 0kts
08-Nov-19 12:37 34.199660 -118.359661 79 782ft 0kts
08-Nov-19 12:38 34.199660 -118.359661 79 782ft 0kts
08-Nov-19 12:39 34.199660 -118.359661 79 782ft 0kts
08-Nov-19 12:40 34.199660 -118.359661 79 782ft 0kts
08-Nov-19 12:41 34.199660 -118.359661 79 782ft 0kts
08-Nov-19 12:42 34.199660 -118.359661 79 782ft 0kts
08-Nov-19 12:43 34.199660 -118.359661 79 782ft 0kts
08-Nov-19 12:44 34.199660 -118.359661 79 782ft 0kts
08-Nov-19 12:45 34.199660 -118.359661 79 782ft 0kts
08-Nov-19 12:46 34.199660 -118.359661 79 782ft 0kts
08-Nov-19 12:47 34.199660 -118.359661 79 782ft 0kts
08-Nov-19 12:47 34.199660 -118.359661 79 782ft 0kts

Navigation Log

Ident Type
Flight plan parsing failed, navigation log unavailable